sensor_id;sensor_type;location;lat;lon;timestamp;pressure;altitude;pressure_sealevel;temperature;humidity
67738;BME280;54534;43.612;1.572;2023-05-29T00:00:24;98803.19;;;23.14;53.45
67738;BME280;54534;43.612;1.572;2023-05-29T00:02:50;98802.34;;;23.13;53.44
67738;BME280;54534;43.612;1.572;2023-05-29T00:05:16;98807.72;;;23.13;53.37
67738;BME280;54534;43.612;1.572;2023-05-29T00:07:42;98805.03;;;23.13;53.37
67738;BME280;54534;43.612;1.572;2023-05-29T00:10:09;98806.72;;;23.14;53.47
67738;BME280;54534;43.612;1.572;2023-05-29T00:12:35;98802.34;;;23.13;53.37
67738;BME280;54534;43.612;1.572;2023-05-29T00:15:02;98808.69;;;23.12;53.34
67738;BME280;54534;43.612;1.572;2023-05-29T00:17:29;98807.88;;;23.11;53.31
67738;BME280;54534;43.612;1.572;2023-05-29T00:19:58;98799.84;;;23.11;53.32
67738;BME280;54534;43.612;1.572;2023-05-29T00:22:24;98795.28;;;23.12;53.09
67738;BME280;54534;43.612;1.572;2023-05-29T00:24:49;98806.00;;;23.12;53.21
67738;BME280;54534;43.612;1.572;2023-05-29T00:27:14;98811.38;;;23.12;52.95
67738;BME280;54534;43.612;1.572;2023-05-29T00:29:40;98803.34;;;23.12;52.76
67738;BME280;54534;43.612;1.572;2023-05-29T00:32:06;98802.66;;;23.10;52.71
67738;BME280;54534;43.612;1.572;2023-05-29T00:34:31;98807.88;;;23.11;52.69
67738;BME280;54534;43.612;1.572;2023-05-29T00:36:58;98799.00;;;23.11;52.59
67738;BME280;54534;43.612;1.572;2023-05-29T00:39:24;98799.84;;;23.11;52.61
67738;BME280;54534;43.612;1.572;2023-05-29T00:41:49;98791.94;;;23.10;52.49
67738;BME280;54534;43.612;1.572;2023-05-29T00:44:19;98803.50;;;23.10;52.49
67738;BME280;54534;43.612;1.572;2023-05-29T00:46:46;98797.31;;;23.10;52.35
67738;BME280;54534;43.612;1.572;2023-05-29T00:49:13;98799.97;;;23.10;52.39
67738;BME280;54534;43.612;1.572;2023-05-29T00:51:38;98789.25;;;23.10;52.29
67738;BME280;54534;43.612;1.572;2023-05-29T00:54:06;98785.91;;;23.08;52.25
67738;BME280;54534;43.612;1.572;2023-05-29T00:56:34;98797.31;;;23.10;52.17
67738;BME280;54534;43.612;1.572;2023-05-29T00:59:00;98788.41;;;23.09;52.08
67738;BME280;54534;43.612;1.572;2023-05-29T01:01:26;98784.06;;;23.08;52.09
67738;BME280;54534;43.612;1.572;2023-05-29T01:03:55;98790.28;;;23.09;52.02
67738;BME280;54534;43.612;1.572;2023-05-29T01:06:23;98792.97;;;23.09;52.21
67738;BME280;54534;43.612;1.572;2023-05-29T01:08:48;98787.75;;;23.07;51.94
67738;BME280;54534;43.612;1.572;2023-05-29T01:14:45;98792.25;;;23.07;51.83
67738;BME280;54534;43.612;1.572;2023-05-29T01:17:16;98788.75;;;23.06;51.80
67738;BME280;54534;43.612;1.572;2023-05-29T01:19:59;98798.47;;;23.07;51.73
67738;BME280;54534;43.612;1.572;2023-05-29T01:25:23;98787.91;;;23.06;51.73
67738;BME280;54534;43.612;1.572;2023-05-29T01:27:55;98781.88;;;23.04;51.82
67738;BME280;54534;43.612;1.572;2023-05-29T01:30:23;98788.91;;;23.05;51.76
67738;BME280;54534;43.612;1.572;2023-05-29T01:32:50;98788.91;;;23.05;51.61
67738;BME280;54534;43.612;1.572;2023-05-29T01:35:16;98784.56;;;23.04;51.51
67738;BME280;54534;43.612;1.572;2023-05-29T01:37:42;98787.25;;;23.04;51.49
67738;BME280;54534;43.612;1.572;2023-05-29T01:40:08;98778.19;;;23.05;51.54
67738;BME280;54534;43.612;1.572;2023-05-29T01:42:34;98779.03;;;23.05;51.43
67738;BME280;54534;43.612;1.572;2023-05-29T01:45:00;98787.06;;;23.05;51.40
67738;BME280;54534;43.612;1.572;2023-05-29T01:47:27;98790.75;;;23.04;51.41
67738;BME280;54534;43.612;1.572;2023-05-29T01:49:52;98784.56;;;23.04;51.36
67738;BME280;54534;43.612;1.572;2023-05-29T01:52:19;98785.56;;;23.03;51.44
67738;BME280;54534;43.612;1.572;2023-05-29T01:54:45;98796.13;;;23.04;51.39
67738;BME280;54534;43.612;1.572;2023-05-29T01:57:11;98795.28;;;23.04;51.41
67738;BME280;54534;43.612;1.572;2023-05-29T01:59:37;98799.81;;;23.03;51.33
67738;BME280;54534;43.612;1.572;2023-05-29T02:02:07;98798.97;;;23.03;51.15
67738;BME280;54534;43.612;1.572;2023-05-29T02:04:32;98796.28;;;23.03;51.24
67738;BME280;54534;43.612;1.572;2023-05-29T02:06:58;98801.66;;;23.03;51.15
67738;BME280;54534;43.612;1.572;2023-05-29T02:09:24;98800.81;;;23.02;51.12
67738;BME280;54534;43.612;1.572;2023-05-29T02:11:50;98796.28;;;23.03;51.09
67738;BME280;54534;43.612;1.572;2023-05-29T02:14:15;98797.28;;;23.02;51.13
67738;BME280;54534;43.612;1.572;2023-05-29T02:16:41;98794.59;;;23.02;51.06
67738;BME280;54534;43.612;1.572;2023-05-29T02:19:09;98797.28;;;23.02;51.06
67738;BME280;54534;43.612;1.572;2023-05-29T02:21:38;98802.63;;;23.02;50.94
67738;BME280;54534;43.612;1.572;2023-05-29T02:24:04;98794.78;;;23.00;51.13
67738;BME280;54534;43.612;1.572;2023-05-29T02:26:29;98793.78;;;23.01;51.02
67738;BME280;54534;43.612;1.572;2023-05-29T02:28:55;98803.66;;;23.00;51.07
67738;BME280;54534;43.612;1.572;2023-05-29T02:31:20;98807.34;;;22.99;51.02
67738;BME280;54534;43.612;1.572;2023-05-29T02:33:45;98805.66;;;22.98;51.09
67738;BME280;54534;43.612;1.572;2023-05-29T02:36:11;98813.53;;;23.00;50.88
67738;BME280;54534;43.612;1.572;2023-05-29T02:38:37;98806.34;;;23.00;50.95
67738;BME280;54534;43.612;1.572;2023-05-29T02:41:02;98810.00;;;22.99;50.79
67738;BME280;54534;43.612;1.572;2023-05-29T02:43:28;98807.34;;;22.99;50.81
67738;BME280;54534;43.612;1.572;2023-05-29T02:45:53;98801.13;;;22.99;50.89
67738;BME280;54534;43.612;1.572;2023-05-29T02:48:19;98793.25;;;22.97;50.87
67738;BME280;54534;43.612;1.572;2023-05-29T02:50:44;98797.63;;;22.98;50.83
67738;BME280;54534;43.612;1.572;2023-05-29T02:53:10;98792.25;;;22.98;50.83
67738;BME280;54534;43.612;1.572;2023-05-29T02:55:35;98800.31;;;22.98;50.77
67738;BME280;54534;43.612;1.572;2023-05-29T02:58:01;98798.63;;;22.97;50.85
67738;BME280;54534;43.612;1.572;2023-05-29T03:00:27;98798.63;;;22.97;50.71
67738;BME280;54534;43.612;1.572;2023-05-29T03:02:54;98804.97;;;22.96;50.65
67738;BME280;54534;43.612;1.572;2023-05-29T03:05:20;98809.34;;;22.97;50.61
67738;BME280;54534;43.612;1.572;2023-05-29T03:07:45;98803.97;;;22.97;50.71
67738;BME280;54534;43.612;1.572;2023-05-29T03:10:11;98808.66;;;22.95;50.71
67738;BME280;54534;43.612;1.572;2023-05-29T03:12:37;98806.00;;;22.95;50.72
67738;BME280;54534;43.612;1.572;2023-05-29T03:15:03;98802.47;;;22.95;50.57
67738;BME280;54534;43.612;1.572;2023-05-29T03:17:28;98800.63;;;22.95;50.75
67738;BME280;54534;43.612;1.572;2023-05-29T03:19:54;98801.44;;;22.96;50.63
67738;BME280;54534;43.612;1.572;2023-05-29T03:22:19;98793.56;;;22.94;50.78
67738;BME280;54534;43.612;1.572;2023-05-29T03:24:45;98783.84;;;22.93;50.63
67738;BME280;54534;43.612;1.572;2023-05-29T03:27:10;98786.38;;;22.95;50.75
67738;BME280;54534;43.612;1.572;2023-05-29T03:29:36;98791.75;;;22.95;50.62
67738;BME280;54534;43.612;1.572;2023-05-29T03:32:01;98788.38;;;22.93;50.54
67738;BME280;54534;43.612;1.572;2023-05-29T03:34:27;98788.38;;;22.93;50.54
67738;BME280;54534;43.612;1.572;2023-05-29T03:36:53;98793.75;;;22.93;50.66
67738;BME280;54534;43.612;1.572;2023-05-29T03:39:18;98779.50;;;22.92;50.57
67738;BME280;54534;43.612;1.572;2023-05-29T03:41:44;98785.72;;;22.93;50.61
67738;BME280;54534;43.612;1.572;2023-05-29T03:44:09;98782.19;;;22.92;50.63
67738;BME280;54534;43.612;1.572;2023-05-29T03:46:35;98784.88;;;22.92;50.66
67738;BME280;54534;43.612;1.572;2023-05-29T03:49:00;98781.50;;;22.90;50.57
67738;BME280;54534;43.612;1.572;2023-05-29T03:51:26;98792.06;;;22.92;50.43
67738;BME280;54534;43.612;1.572;2023-05-29T03:53:51;98793.91;;;22.91;50.52
67738;BME280;54534;43.612;1.572;2023-05-29T03:56:17;98794.91;;;22.90;50.61
67738;BME280;54534;43.612;1.572;2023-05-29T03:58:42;98802.97;;;22.90;50.45
67738;BME280;54534;43.612;1.572;2023-05-29T04:01:07;98799.25;;;22.91;50.57
67738;BME280;54534;43.612;1.572;2023-05-29T04:03:34;98808.31;;;22.90;50.57
67738;BME280;54534;43.612;1.572;2023-05-29T04:06:00;98810.16;;;22.89;50.54
67738;BME280;54534;43.612;1.572;2023-05-29T04:08:25;98802.09;;;22.89;50.51
67738;BME280;54534;43.612;1.572;2023-05-29T04:10:51;98809.31;;;22.89;50.50
67738;BME280;54534;43.612;1.572;2023-05-29T04:13:19;98809.31;;;22.89;50.56
67738;BME280;54534;43.612;1.572;2023-05-29T04:15:45;98801.25;;;22.89;50.54
67738;BME280;54534;43.612;1.572;2023-05-29T04:18:10;98800.41;;;22.88;50.55
67738;BME280;54534;43.612;1.572;2023-05-29T04:20:35;98813.81;;;22.88;50.55
67738;BME280;54534;43.612;1.572;2023-05-29T04:23:01;98815.66;;;22.88;50.55
67738;BME280;54534;43.612;1.572;2023-05-29T04:25:26;98806.81;;;22.87;50.57
67738;BME280;54534;43.612;1.572;2023-05-29T04:27:51;98816.69;;;22.87;50.62
67738;BME280;54534;43.612;1.572;2023-05-29T04:30:17;98819.34;;;22.87;50.49
67738;BME280;54534;43.612;1.572;2023-05-29T04:32:43;98823.88;;;22.86;50.50
67738;BME280;54534;43.612;1.572;2023-05-29T04:35:08;98821.19;;;22.86;50.58
67738;BME280;54534;43.612;1.572;2023-05-29T04:37:34;98817.84;;;22.84;50.62
67738;BME280;54534;43.612;1.572;2023-05-29T04:40:07;98830.22;;;22.85;50.68
67738;BME280;54534;43.612;1.572;2023-05-29T04:42:35;98825.88;;;22.84;50.71
67738;BME280;54534;43.612;1.572;2023-05-29T04:45:01;98827.53;;;22.85;50.68
67738;BME280;54534;43.612;1.572;2023-05-29T04:47:26;98825.88;;;22.84;50.66
67738;BME280;54534;43.612;1.572;2023-05-29T04:49:53;98825.88;;;22.84;50.60
67738;BME280;54534;43.612;1.572;2023-05-29T04:52:18;98832.09;;;22.85;50.66
67738;BME280;54534;43.612;1.572;2023-05-29T04:54:46;98832.09;;;22.85;50.70
67738;BME280;54534;43.612;1.572;2023-05-29T04:57:11;98837.75;;;22.82;50.12
67738;BME280;54534;43.612;1.572;2023-05-29T04:59:37;98831.56;;;22.81;49.87
67738;BME280;54534;43.612;1.572;2023-05-29T05:02:02;98832.91;;;22.77;49.37
67738;BME280;54534;43.612;1.572;2023-05-29T05:04:28;98847.44;;;22.74;49.22
67738;BME280;54534;43.612;1.572;2023-05-29T05:06:53;98842.03;;;22.66;49.18
67738;BME280;54534;43.612;1.572;2023-05-29T05:09:18;98841.00;;;22.67;49.12
67738;BME280;54534;43.612;1.572;2023-05-29T05:11:44;98843.00;;;22.65;49.28
67738;BME280;54534;43.612;1.572;2023-05-29T05:14:09;98845.84;;;22.63;49.34
67738;BME280;54534;43.612;1.572;2023-05-29T05:16:35;98845.00;;;22.63;49.30
67738;BME280;54534;43.612;1.572;2023-05-29T05:19:00;98847.00;;;22.61;49.40
67738;BME280;54534;43.612;1.572;2023-05-29T05:21:25;98848.84;;;22.60;49.29
67738;BME280;54534;43.612;1.572;2023-05-29T05:23:51;98850.69;;;22.60;49.42
67738;BME280;54534;43.612;1.572;2023-05-29T05:26:16;98844.66;;;22.58;49.46
67738;BME280;54534;43.612;1.572;2023-05-29T05:28:42;98844.78;;;22.56;49.23
67738;BME280;54534;43.612;1.572;2023-05-29T05:31:08;98860.03;;;22.55;49.24
67738;BME280;54534;43.612;1.572;2023-05-29T05:33:34;98852.16;;;22.54;49.31
67738;BME280;54534;43.612;1.572;2023-05-29T05:35:59;98860.34;;;22.52;49.43
67738;BME280;54534;43.612;1.572;2023-05-29T05:38:24;98846.97;;;22.52;49.38
67738;BME280;54534;43.612;1.572;2023-05-29T05:40:50;98856.00;;;22.51;49.34
67738;BME280;54534;43.612;1.572;2023-05-29T05:43:15;98850.63;;;22.51;49.46
67738;BME280;54534;43.612;1.572;2023-05-29T05:45:40;98857.00;;;22.50;49.52
67738;BME280;54534;43.612;1.572;2023-05-29T05:48:08;98860.66;;;22.49;49.32
67738;BME280;54534;43.612;1.572;2023-05-29T05:50:34;98858.16;;;22.48;49.39
67738;BME280;54534;43.612;1.572;2023-05-29T05:53:00;98861.66;;;22.48;49.33
67738;BME280;54534;43.612;1.572;2023-05-29T05:55:25;98857.31;;;22.47;49.49
67738;BME280;54534;43.612;1.572;2023-05-29T05:57:53;98858.31;;;22.46;49.51
67738;BME280;54534;43.612;1.572;2023-05-29T06:00:19;98864.69;;;22.45;49.45
67738;BME280;54534;43.612;1.572;2023-05-29T06:02:44;98859.31;;;22.45;49.38
67738;BME280;54534;43.612;1.572;2023-05-29T06:05:10;98864.81;;;22.43;49.44
67738;BME280;54534;43.612;1.572;2023-05-29T06:07:36;98863.28;;;22.41;49.31
67738;BME280;54534;43.612;1.572;2023-05-29T06:10:03;98862.78;;;22.37;49.42
67738;BME280;54534;43.612;1.572;2023-05-29T06:12:29;98861.25;;;22.35;49.35
67738;BME280;54534;43.612;1.572;2023-05-29T06:14:54;98865.91;;;22.32;49.61
67738;BME280;54534;43.612;1.572;2023-05-29T06:17:20;98868.75;;;22.31;49.79
67738;BME280;54534;43.612;1.572;2023-05-29T06:19:46;98870.75;;;22.29;49.55
67738;BME280;54534;43.612;1.572;2023-05-29T06:22:11;98873.56;;;22.27;49.62
67738;BME280;54534;43.612;1.572;2023-05-29T06:24:37;98871.22;;;22.24;49.71
67738;BME280;54534;43.612;1.572;2023-05-29T06:27:03;98866.00;;;22.22;49.63
67738;BME280;54534;43.612;1.572;2023-05-29T06:29:28;98865.34;;;22.20;49.80
67738;BME280;54534;43.612;1.572;2023-05-29T06:31:54;98881.53;;;22.19;49.74
67738;BME280;54534;43.612;1.572;2023-05-29T06:34:19;98873.69;;;22.17;50.04
67738;BME280;54534;43.612;1.572;2023-05-29T06:36:44;98876.53;;;22.16;50.01
67738;BME280;54534;43.612;1.572;2023-05-29T06:39:10;98877.69;;;22.13;50.10
67738;BME280;54534;43.612;1.572;2023-05-29T06:41:35;98883.03;;;22.13;50.16
67738;BME280;54534;43.612;1.572;2023-05-29T06:44:01;98882.19;;;22.13;50.23
67738;BME280;54534;43.612;1.572;2023-05-29T06:46:26;98888.38;;;22.13;50.28
67738;BME280;54534;43.612;1.572;2023-05-29T06:48:51;98885.53;;;22.15;50.20
67738;BME280;54534;43.612;1.572;2023-05-29T06:51:17;98882.00;;;22.14;50.25
67738;BME280;54534;43.612;1.572;2023-05-29T06:53:42;98880.00;;;22.16;50.27
67738;BME280;54534;43.612;1.572;2023-05-29T06:56:08;98877.19;;;22.18;50.30
67738;BME280;54534;43.612;1.572;2023-05-29T06:58:34;98872.84;;;22.17;50.47
67738;BME280;54534;43.612;1.572;2023-05-29T07:00:59;98880.72;;;22.18;50.42
67738;BME280;54534;43.612;1.572;2023-05-29T07:03:25;98882.56;;;22.18;50.54
67738;BME280;54534;43.612;1.572;2023-05-29T07:05:51;98882.25;;;22.21;50.60
67738;BME280;54534;43.612;1.572;2023-05-29T07:08:17;98886.75;;;22.20;50.66
67738;BME280;54534;43.612;1.572;2023-05-29T07:10:42;98888.28;;;22.23;50.71
67738;BME280;54534;43.612;1.572;2023-05-29T07:13:08;98888.28;;;22.23;50.69
67738;BME280;54534;43.612;1.572;2023-05-29T07:15:34;98890.13;;;22.22;50.66
67738;BME280;54534;43.612;1.572;2023-05-29T07:17:59;98895.34;;;22.24;50.71
67738;BME280;54534;43.612;1.572;2023-05-29T07:20:25;98898.81;;;22.25;50.89
67738;BME280;54534;43.612;1.572;2023-05-29T07:22:50;98897.84;;;22.26;50.95
67738;BME280;54534;43.612;1.572;2023-05-29T07:25:16;98906.56;;;22.28;50.91
67738;BME280;54534;43.612;1.572;2023-05-29T07:27:41;98913.75;;;22.27;51.01
67738;BME280;54534;43.612;1.572;2023-05-29T07:30:07;98907.41;;;22.28;50.95
67738;BME280;54534;43.612;1.572;2023-05-29T07:32:33;98910.09;;;22.28;50.92
67738;BME280;54534;43.612;1.572;2023-05-29T07:34:58;98909.91;;;22.30;50.94
67738;BME280;54534;43.612;1.572;2023-05-29T07:37:24;98916.13;;;22.30;51.04
67738;BME280;54534;43.612;1.572;2023-05-29T07:39:49;98915.97;;;22.32;50.89
67738;BME280;54534;43.612;1.572;2023-05-29T07:42:15;98916.13;;;22.30;51.06
67738;BME280;54534;43.612;1.572;2023-05-29T07:44:40;98914.13;;;22.32;51.04
67738;BME280;54534;43.612;1.572;2023-05-29T07:47:09;98916.78;;;22.32;50.92
67738;BME280;54534;43.612;1.572;2023-05-29T07:49:35;98918.50;;;22.33;50.96
67738;BME280;54534;43.612;1.572;2023-05-29T07:52:02;98922.88;;;22.35;51.01
67738;BME280;54534;43.612;1.572;2023-05-29T07:54:27;98916.66;;;22.34;50.99
67738;BME280;54534;43.612;1.572;2023-05-29T07:56:53;98919.16;;;22.36;51.05
67738;BME280;54534;43.612;1.572;2023-05-29T07:59:18;98920.03;;;22.36;50.92
67738;BME280;54534;43.612;1.572;2023-05-29T08:01:43;98907.59;;;22.35;51.11
67738;BME280;54534;43.612;1.572;2023-05-29T08:04:09;98912.84;;;22.37;51.02
67738;BME280;54534;43.612;1.572;2023-05-29T08:06:35;98911.13;;;22.36;50.93
67738;BME280;54534;43.612;1.572;2023-05-29T08:09:02;98917.16;;;22.38;51.06
67738;BME280;54534;43.612;1.572;2023-05-29T08:11:27;98911.81;;;22.38;50.97
67738;BME280;54534;43.612;1.572;2023-05-29T08:13:52;98909.13;;;22.38;51.10
67738;BME280;54534;43.612;1.572;2023-05-29T08:16:18;98915.34;;;22.38;50.93
67738;BME280;54534;43.612;1.572;2023-05-29T08:18:43;98904.63;;;22.38;50.89
67738;BME280;54534;43.612;1.572;2023-05-29T08:21:09;98912.53;;;22.40;50.90
67738;BME280;54534;43.612;1.572;2023-05-29T08:23:35;98909.00;;;22.39;51.04
67738;BME280;54534;43.612;1.572;2023-05-29T08:26:00;98909.84;;;22.40;51.13
67738;BME280;54534;43.612;1.572;2023-05-29T08:28:27;98907.84;;;22.42;50.98
67738;BME280;54534;43.612;1.572;2023-05-29T08:30:53;98915.19;;;22.40;50.96
67738;BME280;54534;43.612;1.572;2023-05-29T08:33:18;98916.88;;;22.41;51.05
67738;BME280;54534;43.612;1.572;2023-05-29T08:35:44;98913.19;;;22.42;50.94
67738;BME280;54534;43.612;1.572;2023-05-29T08:38:09;98914.03;;;22.42;51.05
67738;BME280;54534;43.612;1.572;2023-05-29T08:40:35;98914.88;;;22.43;51.06
67738;BME280;54534;43.612;1.572;2023-05-29T08:43:05;98917.53;;;22.43;51.11
67738;BME280;54534;43.612;1.572;2023-05-29T08:45:33;98916.56;;;22.44;50.94
67738;BME280;54534;43.612;1.572;2023-05-29T08:48:00;98913.88;;;22.44;51.04
67738;BME280;54534;43.612;1.572;2023-05-29T08:50:26;98916.56;;;22.44;51.04
67738;BME280;54534;43.612;1.572;2023-05-29T08:52:52;98918.25;;;22.45;50.89
67738;BME280;54534;43.612;1.572;2023-05-29T08:55:17;98908.53;;;22.44;51.03
67738;BME280;54534;43.612;1.572;2023-05-29T08:57:43;98913.88;;;22.44;51.04
67738;BME280;54534;43.612;1.572;2023-05-29T09:00:09;98909.38;;;22.44;50.92
67738;BME280;54534;43.612;1.572;2023-05-29T09:02:41;98914.56;;;22.46;51.02
67738;BME280;54534;43.612;1.572;2023-05-29T09:05:07;98911.88;;;22.46;51.04
67738;BME280;54534;43.612;1.572;2023-05-29T09:07:33;98917.25;;;22.46;50.91
67738;BME280;54534;43.612;1.572;2023-05-29T09:09:59;98915.41;;;22.47;50.95
67738;BME280;54534;43.612;1.572;2023-05-29T09:12:26;98915.41;;;22.47;50.94
67738;BME280;54534;43.612;1.572;2023-05-29T09:14:51;98918.09;;;22.47;50.89
67738;BME280;54534;43.612;1.572;2023-05-29T09:17:17;98911.03;;;22.45;50.82
67738;BME280;54534;43.612;1.572;2023-05-29T09:19:42;98916.25;;;22.47;50.90
67738;BME280;54534;43.612;1.572;2023-05-29T09:22:12;98912.56;;;22.48;50.93
67738;BME280;54534;43.612;1.572;2023-05-29T09:24:40;98911.88;;;22.46;50.91
67738;BME280;54534;43.612;1.572;2023-05-29T09:27:06;98912.56;;;22.48;50.93
67738;BME280;54534;43.612;1.572;2023-05-29T09:29:38;98900.19;;;22.47;50.78
67738;BME280;54534;43.612;1.572;2023-05-29T09:32:07;98900.84;;;22.49;50.74
67738;BME280;54534;43.612;1.572;2023-05-29T09:34:33;98899.16;;;22.48;50.75
67738;BME280;54534;43.612;1.572;2023-05-29T09:37:05;98899.03;;;22.50;50.82
67738;BME280;54534;43.612;1.572;2023-05-29T09:39:47;98909.75;;;22.50;50.65
67738;BME280;54534;43.612;1.572;2023-05-29T09:42:14;98909.75;;;22.50;50.58
67738;BME280;54534;43.612;1.572;2023-05-29T09:44:40;98904.38;;;22.50;50.60
67738;BME280;54534;43.612;1.572;2023-05-29T09:47:06;98899.88;;;22.50;50.68
67738;BME280;54534;43.612;1.572;2023-05-29T09:49:32;98908.72;;;22.51;50.70
67738;BME280;54534;43.612;1.572;2023-05-29T09:51:57;98909.75;;;22.50;50.73
67738;BME280;54534;43.612;1.572;2023-05-29T09:54:27;98907.91;;;22.50;50.53
67738;BME280;54534;43.612;1.572;2023-05-29T09:56:53;98909.75;;;22.50;50.68
67738;BME280;54534;43.612;1.572;2023-05-29T09:59:23;98906.03;;;22.51;50.57
67738;BME280;54534;43.612;1.572;2023-05-29T10:02:00;98906.88;;;22.51;50.46
67738;BME280;54534;43.612;1.572;2023-05-29T10:04:26;98907.75;;;22.52;50.52
67738;BME280;54534;43.612;1.572;2023-05-29T10:06:55;98907.75;;;22.52;50.54
67738;BME280;54534;43.612;1.572;2023-05-29T10:09:23;98904.22;;;22.51;50.58
67738;BME280;54534;43.612;1.572;2023-05-29T10:11:52;98906.75;;;22.53;50.50
67738;BME280;54534;43.612;1.572;2023-05-29T10:14:22;98904.88;;;22.53;50.56
67738;BME280;54534;43.612;1.572;2023-05-29T10:16:50;98904.88;;;22.53;50.41
67738;BME280;54534;43.612;1.572;2023-05-29T10:19:22;98904.88;;;22.53;50.35
67738;BME280;54534;43.612;1.572;2023-05-29T10:21:51;98904.88;;;22.53;50.52
67738;BME280;54534;43.612;1.572;2023-05-29T10:24:18;98907.44;;;22.55;50.57
67738;BME280;54534;43.612;1.572;2023-05-29T10:26:47;98896.72;;;22.55;50.65
67738;BME280;54534;43.612;1.572;2023-05-29T10:34:43;98898.53;;;22.54;50.40
67738;BME280;54534;43.612;1.572;2023-05-29T10:37:21;98895.88;;;22.54;50.54
67738;BME280;54534;43.612;1.572;2023-05-29T10:39:48;98894.16;;;22.53;50.51
67738;BME280;54534;43.612;1.572;2023-05-29T10:45:04;98886.97;;;22.54;50.40
67738;BME280;54534;43.612;1.572;2023-05-29T10:47:30;98895.03;;;22.54;50.45
67738;BME280;54534;43.612;1.572;2023-05-29T10:50:02;98886.84;;;22.55;50.49
67738;BME280;54534;43.612;1.572;2023-05-29T10:52:34;98889.53;;;22.55;50.34
67738;BME280;54534;43.612;1.572;2023-05-29T10:55:01;98882.31;;;22.56;50.41
67738;BME280;54534;43.612;1.572;2023-05-29T10:57:29;98878.81;;;22.55;50.53
67738;BME280;54534;43.612;1.572;2023-05-29T10:59:59;98877.78;;;22.56;50.38
67738;BME280;54534;43.612;1.572;2023-05-29T11:02:25;98879.47;;;22.58;50.40
67738;BME280;54534;43.612;1.572;2023-05-29T11:05:18;98880.47;;;22.56;50.43
67738;BME280;54534;43.612;1.572;2023-05-29T11:07:56;98871.44;;;22.58;50.27
67738;BME280;54534;43.612;1.572;2023-05-29T11:11:01;98870.59;;;22.57;50.27
67738;BME280;54534;43.612;1.572;2023-05-29T11:13:36;98872.44;;;22.56;50.41
67738;BME280;54534;43.612;1.572;2023-05-29T11:16:35;98866.09;;;22.58;50.26
67738;BME280;54534;43.612;1.572;2023-05-29T11:19:08;98863.41;;;22.58;50.35
67738;BME280;54534;43.612;1.572;2023-05-29T11:24:02;98852.69;;;22.58;50.42
67738;BME280;54534;43.612;1.572;2023-05-29T11:26:29;98849.16;;;22.57;50.40
67738;BME280;54534;43.612;1.572;2023-05-29T11:29:03;98850.69;;;22.60;50.43
67738;BME280;54534;43.612;1.572;2023-05-29T11:31:31;98843.50;;;22.60;50.39
67738;BME280;54534;43.612;1.572;2023-05-29T11:33:59;98847.31;;;22.58;50.52
67738;BME280;54534;43.612;1.572;2023-05-29T11:36:25;98841.66;;;22.61;50.38
67738;BME280;54534;43.612;1.572;2023-05-29T11:38:51;98839.81;;;22.61;50.21
67738;BME280;54534;43.612;1.572;2023-05-29T11:41:17;98833.63;;;22.61;50.29
67738;BME280;54534;43.612;1.572;2023-05-29T11:43:43;98836.28;;;22.61;50.42
67738;BME280;54534;43.612;1.572;2023-05-29T11:46:19;98833.44;;;22.62;50.45
67738;BME280;54534;43.612;1.572;2023-05-29T11:48:48;98837.97;;;22.62;50.35
67738;BME280;54534;43.612;1.572;2023-05-29T11:51:13;98827.25;;;22.62;50.46
67738;BME280;54534;43.612;1.572;2023-05-29T11:53:42;98820.91;;;22.63;50.30
67738;BME280;54534;43.612;1.572;2023-05-29T11:56:09;98818.22;;;22.63;50.23
67738;BME280;54534;43.612;1.572;2023-05-29T11:58:41;98817.38;;;22.62;50.41
67738;BME280;54534;43.612;1.572;2023-05-29T12:01:08;98817.38;;;22.62;50.35
67738;BME280;54534;43.612;1.572;2023-05-29T12:03:40;98812.84;;;22.63;50.32
67738;BME280;54534;43.612;1.572;2023-05-29T12:06:08;98810.19;;;22.63;50.42
67738;BME280;54534;43.612;1.572;2023-05-29T12:08:33;98811.88;;;22.64;50.55
67738;BME280;54534;43.612;1.572;2023-05-29T12:10:59;98805.50;;;22.65;50.46
67738;BME280;54534;43.612;1.572;2023-05-29T12:13:25;98801.16;;;22.64;50.34
67738;BME280;54534;43.612;1.572;2023-05-29T12:15:53;98793.13;;;22.64;50.33
67738;BME280;54534;43.612;1.572;2023-05-29T12:18:19;98796.59;;;22.64;50.41
67738;BME280;54534;43.612;1.572;2023-05-29T12:20:45;98784.06;;;22.65;50.22
67738;BME280;54534;43.612;1.572;2023-05-29T12:23:11;98784.06;;;22.65;50.30
67738;BME280;54534;43.612;1.572;2023-05-29T12:25:39;98790.25;;;22.65;50.28
67738;BME280;54534;43.612;1.572;2023-05-29T12:28:05;98792.09;;;22.65;50.02
67738;BME280;54534;43.612;1.572;2023-05-29T12:30:31;98792.75;;;22.67;50.46
67738;BME280;54534;43.612;1.572;2023-05-29T12:32:56;98784.06;;;22.65;50.42
67738;BME280;54534;43.612;1.572;2023-05-29T12:35:24;98786.59;;;22.66;50.30
67738;BME280;54534;43.612;1.572;2023-05-29T12:37:56;98786.59;;;22.66;50.36
67738;BME280;54534;43.612;1.572;2023-05-29T12:40:23;98784.72;;;22.67;50.41
67738;BME280;54534;43.612;1.572;2023-05-29T12:43:08;98789.09;;;22.68;50.39
67738;BME280;54534;43.612;1.572;2023-05-29T12:45:37;98784.72;;;22.67;50.48
67738;BME280;54534;43.612;1.572;2023-05-29T12:48:04;98783.75;;;22.68;50.28
67738;BME280;54534;43.612;1.572;2023-05-29T12:50:32;98774.84;;;22.67;50.34
67738;BME280;54534;43.612;1.572;2023-05-29T12:52:59;98776.53;;;22.69;50.26
67738;BME280;54534;43.612;1.572;2023-05-29T12:55:26;98781.91;;;22.69;50.38
67738;BME280;54534;43.612;1.572;2023-05-29T12:57:52;98764.00;;;22.69;50.46
67738;BME280;54534;43.612;1.572;2023-05-29T13:00:19;98764.97;;;22.68;50.37
67738;BME280;54534;43.612;1.572;2023-05-29T13:02:46;98763.28;;;22.67;50.38
67738;BME280;54534;43.612;1.572;2023-05-29T13:05:12;98763.16;;;22.69;50.42
67738;BME280;54534;43.612;1.572;2023-05-29T13:07:37;98761.31;;;22.69;50.40
67738;BME280;54534;43.612;1.572;2023-05-29T13:10:03;98759.44;;;22.70;50.26
67738;BME280;54534;43.612;1.572;2023-05-29T13:12:29;98754.09;;;22.70;50.33
67738;BME280;54534;43.612;1.572;2023-05-29T13:14:54;98752.28;;;22.70;50.33